Startup, WA (98293)

1:22 AM PDT on August 21, 2014 (GMT -0700)
prospector | Change Station
CLOSE
Current Station
Personal Weather Station
Location: Gold Bar, WA
Elevation: 174 ft
Nearby Weather Stations

Elev 174 ft 47.86 °N, 121.71 °W | Updated 3 seconds ago

Mostly Cloudy
Mostly Cloudy
60.1 °F
Feels Like 60.1 °F
N
0.0
Wind Variable Wind from West
Gusts 1.6 mph

Today
High -- | Low -- °F
--% Chance of Precip.
Yesterday
High -- | Low -- °F
Precip. -- in
6:10 AM 8:08 PM
Waning Crescent, 16% visible
Pressure 30.01 in
Visibility 10.0 miles
Clouds Mostly Cloudy 6000 ft
Dew Point 60 °F
Humidity 99%
Rainfall 0.00 in
Snow Depth Not available.
UV 0.0 out of 12
Pollen 2.70 out of 12
PM2.5 Good
Flu Activity Not available.
METAR KPAE 210753Z AUTO 23005KT 10SM BKN060 15/11 A3002 RMK AO2 SLP163 T01500111 402060144

More Conditions Fewer Conditions

Pressure 30.01 in
Visibility 10.0 miles
Clouds Mostly Cloudy 6000 ft
Dew Point 60 °F
Humidity 99%
Rainfall 0.00 in
Snow Depth Not available.
UV 0.0 out of 12
Pollen 2.70 out of 12
PM2.5 Good
Flu Activity Not available.
METAR KPAE 210753Z AUTO 23005KT 10SM BKN060 15/11 A3002 RMK AO2 SLP163 T01500111 402060144

More Conditions Fewer Conditions

10-Day Weather Forecast

Almanac

Astronomy

Aug. 21, 2014 Rise Set
Actual Time 6:10 AM PDT 8:08 PM PDT
Civil Twilight 5:37 AM PDT 8:41 PM PDT
Nautical Twilight 4:55 AM PDT 9:22 PM PDT
Astronomical Twilight 4:10 AM PDT 10:08 PM PDT
Moon 2:38 AM PDT 5:47 PM PDT
Length of Visible Light 15h 04m
Length of Day
13h 58m
Tomorrow will be 3m 14s shorter.
Waning Crescent, 16% of the Moon is Illuminated
Today
Waning Crescent
Aug 25
New
Sep 2
First Quarter
Sep 8
Full
Sep 15
Last Quarter

Today's Extremes

State Highs State Lows

Community

WunderPhotos

Upload Photos

1,745,867 photos uploaded!

Nearby

Air Quality

  Air Quality AQ Index Pollutant
Yesterday Good
PM2.5
Yesterday Good
OZONE
Current Good
PM2.5
Wednesday Good
OZONE
Wednesday Good
PM2.5
Thursday Good
OZONE
Thursday Good
PM2.5
Friday Good
OZONE
Friday Good
PM2.5
Saturday Good
OZONE
Saturday Good
PM2.5

Snow Depth

Station Depth Elevation
Alpine Meadows 0 in 3500 ft
Skookum Creek 0 in 3920 ft
Stevens Pass 0 in 4070 ft
Mount Gardner 0 in 3000 ft
Meadows Pass 0 in 3500 ft

Earthquake Activity

City Distance Mag. Time & Date
No recent earthquake activity has been reported nearby.
Minimum magnitude displayed is 2.5.

Coastal Water Temperatures

Place Temperature
Port Townsend, WA 53.1 °F
Seattle, WA 55.9 °F
Friday Harbor, WA 55.0 °F
Tacoma, WA 55.9 °F

Nearby Weather Stations